Time;durP1;ratioP1;P1;durP2;ratioP2;P2;SDS_P1;SDS_P2;PMS_P1;PMS_P2;Temp;Humidity;BMP_temperature;BMP_pressure;BME280_temperature;BME280_humidity;BME280_pressure;Samples;Min_cycle;Max_cycle;Signal;HPM_P1;HPM_P2
2023/06/10 00:00:52;;;;;;;36.85;34.88;;;;;;;;;;5035308;28;20028;-55
2023/06/10 00:03:18;;;;;;;41.78;39.58;;;;;;;;;;5034528;28;20102;-60
2023/06/10 00:05:43;;;;;;;46.47;44.05;;;;;;;;;;5037167;28;20040;-60
2023/06/10 00:08:10;;;;;;;39.95;37.78;;;;;;;;;;5032614;28;20489;-61
2023/06/10 00:10:38;;;;;;;50.63;47.90;;;;;;;;;;5032498;28;20067;-60
2023/06/10 00:13:04;;;;;;;54.28;51.45;;;;;;;;;;5033854;28;20039;-62
2023/06/10 00:15:30;;;;;;;49.88;47.28;;;;;;;;;;5033502;28;20052;-57
2023/06/10 00:17:55;;;;;;;61.33;58.20;;;;;;;;;;5036837;28;20025;-56
2023/06/10 00:20:24;;;;;;;66.25;62.85;;;;;;;;;;5032278;28;20037;-56
2023/06/10 00:22:51;;;;;;;78.50;74.38;;;;;;;;;;5032175;28;20064;-55
2023/06/10 00:25:16;;;;;;;57.10;54.20;;;;;;;;;;5030290;28;20029;-56
2023/06/10 00:27:42;;;;;;;70.03;66.47;;;;;;;;;;5035231;28;20725;-55
2023/06/10 00:30:08;;;;;;;75.60;71.63;;;;;;;;;;5033448;28;20049;-56
2023/06/10 00:32:34;;;;;;;87.20;82.78;;;;;;;;;;5032220;28;20033;-62
2023/06/10 00:34:59;;;;;;;57.63;54.72;;;;;;;;;;5034189;28;20116;-62
2023/06/10 00:37:25;;;;;;;54.75;51.90;;;;;;;;;;5033783;28;20132;-63
2023/06/10 00:39:50;;;;;;;59.63;56.20;;;;;;;;;;5035459;28;20526;-64
2023/06/10 00:42:15;;;;;;;65.22;61.85;;;;;;;;;;5033191;28;20414;-63
2023/06/10 00:44:41;;;;;;;55.55;52.58;;;;;;;;;;5031534;28;20017;-63
2023/06/10 00:47:07;;;;;;;54.85;52.00;;;;;;;;;;5035721;28;20051;-63
2023/06/10 00:49:33;;;;;;;53.22;50.45;;;;;;;;;;5032399;28;20316;-64
2023/06/10 00:51:59;;;;;;;54.22;50.92;;;;;;;;;;5031154;28;20054;-63
2023/06/10 00:54:25;;;;;;;49.72;47.08;;;;;;;;;;5038689;28;20064;-57
2023/06/10 00:56:51;;;;;;;47.53;45.03;;;;;;;;;;5035348;28;20347;-64
2023/06/10 00:59:17;;;;;;;37.50;35.53;;;;;;;;;;5030600;28;20477;-64
2023/06/10 01:01:43;;;;;;;39.25;37.13;;;;;;;;;;5032685;28;20120;-63
2023/06/10 01:04:11;;;;;;;39.13;36.83;;;;;;;;;;5033678;28;20052;-63
2023/06/10 01:07:02;;;;;;;42.22;39.92;;;;;;;;;;5032719;28;20044;-57
2023/06/10 01:09:50;;;;;;;31.90;30.23;;;;;;;;;;5033420;28;20143;-64
2023/06/10 01:12:39;;;;;;;29.30;27.67;;;;;;;;;;5033654;28;20029;-57
2023/06/10 01:15:05;;;;;;;25.35;23.92;;;;;;;;;;5033053;28;20406;-63
2023/06/10 01:17:31;;;;;;;26.23;24.65;;;;;;;;;;5034201;28;20139;-63
2023/06/10 01:19:57;;;;;;;24.10;22.80;;;;;;;;;;5032293;28;20033;-63
2023/06/10 01:22:36;;;;;;;25.45;23.95;;;;;;;;;;5034990;28;20038;-57
2023/06/10 01:25:03;;;;;;;22.92;21.65;;;;;;;;;;5032434;28;20033;-56
2023/06/10 01:27:33;;;;;;;22.80;21.55;;;;;;;;;;5034013;28;20034;-57
2023/06/10 01:30:15;;;;;;;22.60;21.30;;;;;;;;;;5036667;28;20124;-57
2023/06/10 01:32:48;;;;;;;23.23;21.92;;;;;;;;;;5031416;28;20051;-64
2023/06/10 01:35:14;;;;;;;25.80;24.30;;;;;;;;;;5032742;28;20056;-57
2023/06/10 01:37:42;;;;;;;27.30;25.63;;;;;;;;;;5037174;28;20033;-63
2023/06/10 01:40:09;;;;;;;26.77;25.30;;;;;;;;;;5034812;28;20426;-56
2023/06/10 01:42:34;;;;;;;29.65;27.95;;;;;;;;;;5035568;28;20037;-57
2023/06/10 01:45:00;;;;;;;34.45;32.65;;;;;;;;;;5037905;28;20440;-64
2023/06/10 01:47:25;;;;;;;40.88;38.70;;;;;;;;;;5036117;28;20455;-64
2023/06/10 01:49:51;;;;;;;44.03;41.65;;;;;;;;;;5038912;28;20069;-63
2023/06/10 01:52:16;;;;;;;47.33;44.83;;;;;;;;;;5036176;28;20253;-63
2023/06/10 01:54:42;;;;;;;53.60;50.70;;;;;;;;;;5037640;28;20033;-63
2023/06/10 01:57:07;;;;;;;55.80;52.58;;;;;;;;;;5036543;28;20490;-63
2023/06/10 01:59:32;;;;;;;58.95;55.95;;;;;;;;;;5035679;28;20183;-64
2023/06/10 02:01:58;;;;;;;67.90;64.40;;;;;;;;;;5034775;28;20033;-57
2023/06/10 02:04:23;;;;;;;68.20;64.75;;;;;;;;;;5037637;28;20483;-64
2023/06/10 02:06:48;;;;;;;63.45;60.20;;;;;;;;;;5036452;28;20359;-57
2023/06/10 02:09:14;;;;;;;73.68;69.80;;;;;;;;;;5036073;28;20037;-56
2023/06/10 02:11:39;;;;;;;74.15;70.40;;;;;;;;;;5036283;28;20446;-63
2023/06/10 02:14:05;;;;;;;74.15;70.30;;;;;;;;;;5039329;28;20153;-55
2023/06/10 02:16:31;;;;;;;75.28;71.43;;;;;;;;;;5036451;28;20099;-57
2023/06/10 02:18:56;;;;;;;71.63;67.82;;;;;;;;;;5035531;28;20029;-63
2023/06/10 02:21:22;;;;;;;69.72;66.15;;;;;;;;;;5035564;28;20029;-64
2023/06/10 02:23:47;;;;;;;69.95;66.43;;;;;;;;;;5034330;28;20550;-57
2023/06/10 02:26:12;;;;;;;71.22;67.65;;;;;;;;;;5037440;28;20471;-56
2023/06/10 02:28:38;;;;;;;69.15;65.63;;;;;;;;;;5035708;28;20041;-56
2023/06/10 02:31:03;;;;;;;64.95;61.28;;;;;;;;;;5036150;28;20033;-55
2023/06/10 02:33:28;;;;;;;64.50;61.13;;;;;;;;;;5034291;28;20120;-56
2023/06/10 02:35:55;;;;;;;65.57;62.15;;;;;;;;;;5035860;28;20033;-57
2023/06/10 02:38:20;;;;;;;62.67;59.42;;;;;;;;;;5043383;28;20036;-56
2023/06/10 02:40:46;;;;;;;61.63;58.45;;;;;;;;;;5038037;28;20035;-63
2023/06/10 02:43:11;;;;;;;51.63;48.67;;;;;;;;;;5035722;28;20041;-63
2023/06/10 02:45:36;;;;;;;56.92;53.88;;;;;;;;;;5037305;28;20063;-63
2023/06/10 02:48:02;;;;;;;53.72;50.97;;;;;;;;;;5037303;28;20524;-63
2023/06/10 02:50:27;;;;;;;53.28;50.53;;;;;;;;;;5035312;28;20049;-56
2023/06/10 02:52:52;;;;;;;51.08;48.28;;;;;;;;;;5036991;28;20446;-56
2023/06/10 02:55:18;;;;;;;41.63;39.05;;;;;;;;;;5038650;28;20370;-56
2023/06/10 02:57:43;;;;;;;44.25;41.97;;;;;;;;;;5034905;28;20063;-56
2023/06/10 03:00:10;;;;;;;41.95;39.55;;;;;;;;;;5037803;28;20033;-62
2023/06/10 03:02:38;;;;;;;40.20;37.83;;;;;;;;;;5035409;28;20398;-56
2023/06/10 03:05:05;;;;;;;38.53;36.42;;;;;;;;;;5035733;28;20037;-56
2023/06/10 03:07:30;;;;;;;37.80;35.53;;;;;;;;;;5033413;28;20041;-63
2023/06/10 03:09:56;;;;;;;34.45;32.63;;;;;;;;;;5035340;28;20028;-63
2023/06/10 03:12:21;;;;;;;32.72;30.92;;;;;;;;;;5036008;28;20086;-63
2023/06/10 03:14:47;;;;;;;36.33;34.35;;;;;;;;;;5036231;28;20593;-63
2023/06/10 03:17:12;;;;;;;30.98;29.33;;;;;;;;;;5034913;28;20049;-56
2023/06/10 03:19:38;;;;;;;29.40;27.27;;;;;;;;;;5036131;28;20032;-58
2023/06/10 03:22:11;;;;;;;29.08;27.45;;;;;;;;;;5035981;28;20041;-56
2023/06/10 03:24:39;;;;;;;29.50;27.58;;;;;;;;;;5034671;28;20538;-57
2023/06/10 03:27:13;;;;;;;25.17;23.52;;;;;;;;;;5034407;28;20482;-57
2023/06/10 03:29:39;;;;;;;19.88;18.77;;;;;;;;;;5033613;28;20501;-56
2023/06/10 03:32:05;;;;;;;18.20;17.15;;;;;;;;;;5037871;28;20075;-57
2023/06/10 03:34:31;;;;;;;17.25;16.25;;;;;;;;;;5033986;28;20076;-57
2023/06/10 03:36:57;;;;;;;16.20;15.20;;;;;;;;;;5036373;28;20056;-63
2023/06/10 03:39:23;;;;;;;17.15;16.08;;;;;;;;;;5033081;28;20381;-57
2023/06/10 03:41:49;;;;;;;15.93;14.95;;;;;;;;;;5035745;28;20037;-56
2023/06/10 03:44:15;;;;;;;15.90;14.90;;;;;;;;;;5030492;28;20458;-57
2023/06/10 03:46:40;;;;;;;14.27;13.38;;;;;;;;;;5032933;28;20053;-64
2023/06/10 03:49:06;;;;;;;14.02;13.13;;;;;;;;;;5033187;28;20117;-63
2023/06/10 03:51:31;;;;;;;12.13;11.43;;;;;;;;;;5032124;28;20262;-63
2023/06/10 03:53:56;;;;;;;13.45;12.57;;;;;;;;;;5032370;28;20406;-65
2023/06/10 03:56:22;;;;;;;13.77;12.77;;;;;;;;;;5035660;28;20055;-64
2023/06/10 03:58:47;;;;;;;13.30;12.35;;;;;;;;;;5033441;28;20190;-63
2023/06/10 04:01:17;;;;;;;14.27;13.27;;;;;;;;;;5031932;28;20037;-63
2023/06/10 04:03:43;;;;;;;12.77;11.98;;;;;;;;;;5034733;28;20043;-57
2023/06/10 04:06:09;;;;;;;12.88;12.02;;;;;;;;;;5031382;28;20037;-64
2023/06/10 04:08:35;;;;;;;12.80;12.00;;;;;;;;;;5033795;28;20065;-57
2023/06/10 04:11:01;;;;;;;13.38;12.25;;;;;;;;;;5032693;28;20069;-56
2023/06/10 04:13:27;;;;;;;13.00;12.05;;;;;;;;;;5032375;28;20060;-57
2023/06/10 04:15:54;;;;;;;14.18;13.27;;;;;;;;;;5036173;28;20067;-63
2023/06/10 04:18:19;;;;;;;12.35;11.52;;;;;;;;;;5033228;28;20029;-63
2023/06/10 04:20:45;;;;;;;13.77;11.48;;;;;;;;;;5034435;28;20379;-57
2023/06/10 04:23:10;;;;;;;14.50;13.50;;;;;;;;;;5031454;28;20045;-62
2023/06/10 04:25:35;;;;;;;14.38;13.48;;;;;;;;;;5035312;28;20033;-57
2023/06/10 04:28:01;;;;;;;14.48;13.48;;;;;;;;;;5033243;28;20032;-64
2023/06/10 04:30:26;;;;;;;14.27;13.27;;;;;;;;;;5030407;28;20076;-63
2023/06/10 04:32:52;;;;;;;14.02;13.05;;;;;;;;;;5032867;28;20068;-57
2023/06/10 04:35:17;;;;;;;13.32;12.43;;;;;;;;;;5033467;28;20041;-56
2023/06/10 04:37:43;;;;;;;14.00;13.02;;;;;;;;;;5037821;28;20642;-57
2023/06/10 04:40:08;;;;;;;15.07;14.07;;;;;;;;;;5033268;28;20099;-63
2023/06/10 04:42:34;;;;;;;14.43;13.52;;;;;;;;;;5034285;28;20045;-62
2023/06/10 04:45:00;;;;;;;13.60;12.52;;;;;;;;;;5034469;28;20379;-63
2023/06/10 04:47:26;;;;;;;15.85;14.75;;;;;;;;;;5032255;28;20086;-62
2023/06/10 04:49:52;;;;;;;14.93;14.02;;;;;;;;;;5032709;28;20037;-63
2023/06/10 04:52:17;;;;;;;14.95;13.85;;;;;;;;;;5032993;28;20052;-56
2023/06/10 04:54:43;;;;;;;15.30;14.38;;;;;;;;;;5033900;28;20148;-62
2023/06/10 04:57:08;;;;;;;17.33;16.23;;;;;;;;;;5034759;28;20061;-63
2023/06/10 04:59:37;;;;;;;16.20;15.10;;;;;;;;;;5032829;28;20037;-61
2023/06/10 05:02:03;;;;;;;17.20;16.00;;;;;;;;;;5034321;28;20136;-61
2023/06/10 05:04:29;;;;;;;16.70;15.55;;;;;;;;;;5033748;28;20067;-63
2023/06/10 05:06:54;;;;;;;17.77;16.67;;;;;;;;;;5035298;28;20037;-57
2023/06/10 05:09:20;;;;;;;24.10;22.77;;;;;;;;;;5033738;28;20060;-58
2023/06/10 05:11:46;;;;;;;19.33;18.23;;;;;;;;;;5034518;28;20040;-57
2023/06/10 05:14:11;;;;;;;24.15;22.77;;;;;;;;;;5036912;28;20045;-57
2023/06/10 05:16:38;;;;;;;21.60;20.33;;;;;;;;;;5036886;28;20549;-56
2023/06/10 05:19:04;;;;;;;25.88;24.45;;;;;;;;;;5039094;28;20363;-62
2023/06/10 05:21:29;;;;;;;29.70;27.92;;;;;;;;;;5036687;28;20030;-62
2023/06/10 05:23:54;;;;;;;36.67;34.80;;;;;;;;;;5038647;28;20425;-62
2023/06/10 05:26:20;;;;;;;24.13;22.80;;;;;;;;;;5022988;28;20039;-62
2023/06/10 05:28:45;;;;;;;36.28;34.38;;;;;;;;;;5036195;28;20494;-56
2023/06/10 05:31:11;;;;;;;37.15;35.05;;;;;;;;;;5039860;28;20032;-63
2023/06/10 05:33:36;;;;;;;38.08;36.05;;;;;;;;;;5036235;28;20195;-63
2023/06/10 05:36:01;;;;;;;28.55;26.98;;;;;;;;;;5040548;28;20078;-57
2023/06/10 05:38:27;;;;;;;18.00;16.90;;;;;;;;;;5041823;28;20037;-57
2023/06/10 05:40:52;;;;;;;19.50;18.40;;;;;;;;;;5035811;28;20065;-55
2023/06/10 05:43:18;;;;;;;17.90;16.90;;;;;;;;;;5036111;28;20037;-57
2023/06/10 05:45:43;;;;;;;18.17;17.02;;;;;;;;;;5037391;28;20034;-56
2023/06/10 05:48:08;;;;;;;22.05;20.75;;;;;;;;;;5035212;28;20140;-63
2023/06/10 05:50:38;;;;;;;22.85;21.55;;;;;;;;;;5033850;28;20051;-63
2023/06/10 05:53:04;;;;;;;28.70;27.15;;;;;;;;;;5037553;28;20042;-63
2023/06/10 05:55:29;;;;;;;65.50;62.15;;;;;;;;;;5038600;28;20041;-57
2023/06/10 05:58:01;;;;;;;24.40;22.90;;;;;;;;;;5039615;28;20032;-58
2023/06/10 06:00:27;;;;;;;84.95;80.70;;;;;;;;;;5034186;28;20047;-56
2023/06/10 06:02:53;;;;;;;95.57;90.90;;;;;;;;;;5034695;28;20041;-62
2023/06/10 06:05:18;;;;;;;105.88;100.65;;;;;;;;;;5036808;28;20190;-62
2023/06/10 06:07:43;;;;;;;95.30;90.63;;;;;;;;;;5022715;28;20036;-62
2023/06/10 06:10:09;;;;;;;94.88;90.13;;;;;;;;;;5034755;28;20435;-62
2023/06/10 06:12:35;;;;;;;102.63;97.55;;;;;;;;;;5038831;28;20044;-62
2023/06/10 06:15:00;;;;;;;76.53;72.47;;;;;;;;;;5036740;28;20045;-62
2023/06/10 06:17:25;;;;;;;58.05;55.03;;;;;;;;;;5039109;28;20037;-62
2023/06/10 06:19:51;;;;;;;69.78;66.22;;;;;;;;;;5032447;28;20252;-56
2023/06/10 06:22:21;;;;;;;65.32;61.92;;;;;;;;;;5037415;28;20112;-62
2023/06/10 06:24:46;;;;;;;66.70;63.33;;;;;;;;;;5039843;28;20060;-63
2023/06/10 06:27:12;;;;;;;64.05;60.83;;;;;;;;;;5037733;28;20470;-56
2023/06/10 06:29:37;;;;;;;60.70;57.63;;;;;;;;;;5033329;28;20033;-62
2023/06/10 06:32:03;;;;;;;64.25;61.00;;;;;;;;;;5037067;28;20438;-62
2023/06/10 06:34:28;;;;;;;81.45;77.43;;;;;;;;;;5036996;28;20037;-62
2023/06/10 06:36:54;;;;;;;83.63;79.45;;;;;;;;;;5035020;28;20048;-56
2023/06/10 06:39:19;;;;;;;85.82;81.57;;;;;;;;;;5033500;28;20116;-63
2023/06/10 06:41:44;;;;;;;90.80;86.25;;;;;;;;;;5034967;28;20482;-64
2023/06/10 06:44:10;;;;;;;97.28;92.47;;;;;;;;;;5034251;28;20368;-62
2023/06/10 06:46:35;;;;;;;90.43;85.93;;;;;;;;;;5035623;28;20033;-57
2023/06/10 06:49:00;;;;;;;103.45;98.38;;;;;;;;;;5037287;28;20087;-63
2023/06/10 06:51:26;;;;;;;105.03;99.38;;;;;;;;;;5035272;28;20036;-63
2023/06/10 06:53:54;;;;;;;101.47;96.25;;;;;;;;;;5035983;28;20396;-56
2023/06/10 06:56:21;;;;;;;115.15;109.45;;;;;;;;;;5036340;28;20033;-56
2023/06/10 06:58:46;;;;;;;114.45;108.75;;;;;;;;;;5034563;28;20044;-56
2023/06/10 07:01:11;;;;;;;124.38;118.25;;;;;;;;;;5036490;28;20037;-57
2023/06/10 07:03:37;;;;;;;127.60;121.35;;;;;;;;;;5035869;28;20033;-63
2023/06/10 07:06:02;;;;;;;138.32;131.40;;;;;;;;;;5036637;28;20045;-63
2023/06/10 07:08:28;;;;;;;140.45;133.52;;;;;;;;;;5034916;28;20365;-63
2023/06/10 07:10:54;;;;;;;146.00;138.77;;;;;;;;;;5035388;28;20371;-64
2023/06/10 07:13:20;;;;;;;149.40;142.02;;;;;;;;;;5033174;28;20114;-57
2023/06/10 07:15:45;;;;;;;149.73;142.20;;;;;;;;;;5036413;28;20334;-63
2023/06/10 07:18:10;;;;;;;171.07;162.75;;;;;;;;;;5035562;28;20033;-57
2023/06/10 07:20:36;;;;;;;160.23;152.30;;;;;;;;;;5031458;28;20037;-57
2023/06/10 07:23:01;;;;;;;165.15;157.02;;;;;;;;;;5035986;28;20032;-62
2023/06/10 07:25:26;;;;;;;180.98;172.10;;;;;;;;;;5034402;28;20133;-62
2023/06/10 07:27:52;;;;;;;157.10;149.32;;;;;;;;;;5036550;28;20083;-63
2023/06/10 07:30:17;;;;;;;196.10;186.63;;;;;;;;;;5034130;28;20494;-63
2023/06/10 07:32:43;;;;;;;171.60;163.15;;;;;;;;;;5033850;28;20045;-64
2023/06/10 07:35:13;;;;;;;217.70;207.10;;;;;;;;;;5036479;28;20037;-64
2023/06/10 07:37:38;;;;;;;225.52;214.40;;;;;;;;;;5036310;28;20062;-63
2023/06/10 07:40:04;;;;;;;238.63;227.10;;;;;;;;;;5032511;28;20028;-58
2023/06/10 07:42:32;;;;;;;245.38;233.38;;;;;;;;;;5036170;28;20045;-57
2023/06/10 07:44:57;;;;;;;243.18;231.38;;;;;;;;;;5036118;28;20025;-64
2023/06/10 07:47:22;;;;;;;80.95;76.95;;;;;;;;;;5038050;28;20396;-57
2023/06/10 07:49:48;;;;;;;219.02;208.10;;;;;;;;;;5031496;28;20838;-58
2023/06/10 07:52:13;;;;;;;72.25;68.63;;;;;;;;;;5034757;28;20518;-65
2023/06/10 07:54:38;;;;;;;105.15;100.00;;;;;;;;;;5033676;28;20167;-57
2023/06/10 07:57:04;;;;;;;88.28;83.88;;;;;;;;;;5034939;28;20047;-64
2023/06/10 07:59:29;;;;;;;226.65;215.57;;;;;;;;;;5034496;28;20117;-63
2023/06/10 08:01:55;;;;;;;91.90;87.35;;;;;;;;;;5034364;28;20210;-65
2023/06/10 08:04:20;;;;;;;149.85;142.45;;;;;;;;;;5034145;28;20048;-57
2023/06/10 08:06:45;;;;;;;98.93;94.00;;;;;;;;;;5033842;28;20390;-56
2023/06/10 08:09:11;;;;;;;92.97;88.38;;;;;;;;;;5034255;28;20044;-57
2023/06/10 08:11:36;;;;;;;98.75;93.82;;;;;;;;;;5034043;28;20036;-56
2023/06/10 08:14:02;;;;;;;108.47;103.05;;;;;;;;;;5033621;28;20144;-56
2023/06/10 08:16:27;;;;;;;108.13;102.65;;;;;;;;;;5036637;28;20056;-65
2023/06/10 08:18:52;;;;;;;103.80;98.65;;;;;;;;;;5033104;28;20454;-57
2023/06/10 08:21:18;;;;;;;111.25;105.78;;;;;;;;;;5032593;28;20451;-57
2023/06/10 08:23:44;;;;;;;123.97;117.78;;;;;;;;;;5033433;28;20045;-56
2023/06/10 08:26:09;;;;;;;117.70;111.38;;;;;;;;;;5032500;28;20110;-63
2023/06/10 08:28:35;;;;;;;126.68;120.45;;;;;;;;;;5033316;28;20051;-56
2023/06/10 08:31:00;;;;;;;110.60;105.13;;;;;;;;;;5034366;28;20064;-63
2023/06/10 08:33:26;;;;;;;101.18;96.18;;;;;;;;;;5031601;28;20142;-63
2023/06/10 08:35:51;;;;;;;102.65;97.60;;;;;;;;;;5038332;28;20044;-62
2023/06/10 08:38:17;;;;;;;104.10;98.90;;;;;;;;;;5033488;28;20176;-55
2023/06/10 08:40:42;;;;;;;136.75;130.00;;;;;;;;;;5034319;28;20186;-53
2023/06/10 08:43:16;;;;;;;108.55;103.18;;;;;;;;;;5035494;28;20051;-63
2023/06/10 08:45:44;;;;;;;114.57;108.93;;;;;;;;;;5034590;28;20375;-54
2023/06/10 08:48:12;;;;;;;134.85;128.20;;;;;;;;;;5037990;28;20052;-55
2023/06/10 08:50:38;;;;;;;98.90;93.93;;;;;;;;;;5038151;28;20116;-62
2023/06/10 08:53:07;;;;;;;142.05;135.05;;;;;;;;;;5041544;28;20045;-62
2023/06/10 08:55:35;;;;;;;150.43;142.98;;;;;;;;;;5039956;28;20563;-62
2023/06/10 08:58:02;;;;;;;114.25;108.63;;;;;;;;;;5037940;28;20604;-62
2023/06/10 09:00:29;;;;;;;107.40;102.03;;;;;;;;;;5036286;28;20467;-62
2023/06/10 09:02:56;;;;;;;104.07;98.78;;;;;;;;;;5038951;28;20876;-61
2023/06/10 09:05:21;;;;;;;104.07;98.82;;;;;;;;;;5037124;28;20025;-62
2023/06/10 09:07:48;;;;;;;101.18;96.20;;;;;;;;;;5039898;28;20056;-62
2023/06/10 09:10:13;;;;;;;112.70;107.13;;;;;;;;;;5034465;28;20530;-62
2023/06/10 09:12:39;;;;;;;96.22;91.45;;;;;;;;;;5036426;28;20084;-62
2023/06/10 09:15:06;;;;;;;93.18;88.57;;;;;;;;;;5037954;28;20253;-57
2023/06/10 09:17:31;;;;;;;109.40;103.90;;;;;;;;;;5042923;28;20037;-61
2023/06/10 09:19:57;;;;;;;92.25;87.65;;;;;;;;;;5039856;28;20510;-61
2023/06/10 09:22:23;;;;;;;115.57;109.78;;;;;;;;;;5034787;28;20506;-63
2023/06/10 09:24:49;;;;;;;107.53;102.20;;;;;;;;;;5035066;28;20045;-56
2023/06/10 09:27:14;;;;;;;82.10;78.00;;;;;;;;;;5038507;28;20041;-55
2023/06/10 09:29:58;;;;;;;93.38;88.78;;;;;;;;;;5037308;28;20049;-55
2023/06/10 09:32:24;;;;;;;94.65;89.95;;;;;;;;;;5038041;28;20075;-61
2023/06/10 09:34:53;;;;;;;104.20;99.00;;;;;;;;;;5036565;28;20037;-61
2023/06/10 09:37:22;;;;;;;75.18;71.43;;;;;;;;;;5035558;28;20053;-61
2023/06/10 09:40:05;;;;;;;93.30;88.50;;;;;;;;;;5039030;28;20051;-62
2023/06/10 09:42:35;;;;;;;94.40;89.63;;;;;;;;;;5033577;28;20044;-55
2023/06/10 09:45:02;;;;;;;86.70;82.40;;;;;;;;;;5039212;28;20028;-62
2023/06/10 09:47:28;;;;;;;83.13;78.55;;;;;;;;;;5038400;28;20044;-54
2023/06/10 09:49:53;;;;;;;68.63;65.05;;;;;;;;;;5041731;28;20033;-55
2023/06/10 09:52:23;;;;;;;68.93;65.43;;;;;;;;;;5037511;28;20049;-55
2023/06/10 09:54:49;;;;;;;35.83;33.92;;;;;;;;;;5037699;28;20573;-55
2023/06/10 09:57:16;;;;;;;57.42;54.53;;;;;;;;;;5039995;28;20116;-62
2023/06/10 09:59:41;;;;;;;49.05;46.50;;;;;;;;;;5035567;28;20384;-63
2023/06/10 10:02:14;;;;;;;29.38;27.80;;;;;;;;;;5034377;28;20045;-62
2023/06/10 10:04:39;;;;;;;59.05;56.05;;;;;;;;;;5036439;28;20290;-55
2023/06/10 10:07:06;;;;;;;37.03;34.90;;;;;;;;;;5036344;28;20091;-61
2023/06/10 10:09:33;;;;;;;35.03;33.15;;;;;;;;;;5040225;28;20084;-63
2023/06/10 10:12:01;;;;;;;37.15;34.97;;;;;;;;;;5034494;28;20059;-54
2023/06/10 10:14:31;;;;;;;23.88;22.55;;;;;;;;;;5037114;28;20036;-64
2023/06/10 10:16:58;;;;;;;17.80;16.80;;;;;;;;;;5036334;28;20033;-63
2023/06/10 10:19:29;;;;;;;16.33;15.13;;;;;;;;;;5036670;28;20033;-63
2023/06/10 10:22:00;;;;;;;19.10;18.00;;;;;;;;;;5037441;28;20033;-63
2023/06/10 10:24:42;;;;;;;14.65;13.85;;;;;;;;;;5034904;28;20052;-55
2023/06/10 10:27:31;;;;;;;17.70;16.42;;;;;;;;;;5037150;28;20055;-53
2023/06/10 10:29:58;;;;;;;18.55;17.55;;;;;;;;;;5015427;28;20056;-55
2023/06/10 10:32:40;;;;;;;17.17;16.17;;;;;;;;;;5044248;28;20038;-53
2023/06/10 10:35:15;;;;;;;19.73;18.52;;;;;;;;;;5035796;28;20044;-57
2023/06/10 10:37:41;;;;;;;17.20;16.20;;;;;;;;;;5036130;28;20056;-51
2023/06/10 10:40:07;;;;;;;17.60;16.60;;;;;;;;;;5037355;28;20045;-54
2023/06/10 10:42:34;;;;;;;16.33;15.40;;;;;;;;;;5037410;28;20690;-53
2023/06/10 10:45:00;;;;;;;20.17;18.75;;;;;;;;;;5034311;28;20041;-62
2023/06/10 10:47:29;;;;;;;17.98;16.98;;;;;;;;;;5036242;28;20033;-54
2023/06/10 10:49:56;;;;;;;19.92;18.73;;;;;;;;;;5035654;28;20036;-52
2023/06/10 10:52:21;;;;;;;18.50;17.48;;;;;;;;;;5037938;28;20087;-62
2023/06/10 10:54:47;;;;;;;16.85;15.85;;;;;;;;;;5035078;28;20116;-62
2023/06/10 10:57:17;;;;;;;17.10;16.05;;;;;;;;;;5034999;28;20048;-53
2023/06/10 10:59:49;;;;;;;20.80;19.58;;;;;;;;;;5034535;28;20094;-51
2023/06/10 11:02:18;;;;;;;36.22;34.33;;;;;;;;;;5036430;28;20041;-53
2023/06/10 11:04:47;;;;;;;27.75;26.13;;;;;;;;;;5034593;28;20037;-53
2023/06/10 11:07:15;;;;;;;22.55;21.30;;;;;;;;;;5036727;28;20561;-53
2023/06/10 11:10:07;;;;;;;21.10;19.88;;;;;;;;;;5032749;28;20068;-53
2023/06/10 11:12:54;;;;;;;32.88;31.17;;;;;;;;;;5035266;28;20056;-53
2023/06/10 11:15:23;;;;;;;38.38;36.30;;;;;;;;;;5044049;28;20329;-54
2023/06/10 11:18:14;;;;;;;41.40;39.27;;;;;;;;;;5036510;28;20037;-52
2023/06/10 11:20:47;;;;;;;25.52;24.13;;;;;;;;;;5035643;28;20057;-53
2023/06/10 11:23:27;;;;;;;29.50;28.00;;;;;;;;;;5021680;28;20386;-60
2023/06/10 11:26:20;;;;;;;31.20;29.40;;;;;;;;;;5037359;28;20029;-61
2023/06/10 11:28:46;;;;;;;41.80;39.63;;;;;;;;;;5035022;28;20045;-52
2023/06/10 11:31:30;;;;;;;39.72;37.63;;;;;;;;;;5034689;28;20477;-61
2023/06/10 11:34:02;;;;;;;42.58;40.38;;;;;;;;;;5037075;28;20036;-61
2023/06/10 11:36:28;;;;;;;38.25;36.30;;;;;;;;;;5034147;28;20102;-54
2023/06/10 11:39:01;;;;;;;37.30;35.40;;;;;;;;;;5036001;28;20083;-61
2023/06/10 11:41:28;;;;;;;34.63;32.83;;;;;;;;;;5033826;28;20037;-63
2023/06/10 11:43:56;;;;;;;42.28;40.10;;;;;;;;;;5035556;28;20033;-54
2023/06/10 11:46:22;;;;;;;37.22;35.25;;;;;;;;;;5032367;28;20432;-61
2023/06/10 11:48:55;;;;;;;33.25;31.48;;;;;;;;;;5034543;28;20052;-65
2023/06/10 11:51:21;;;;;;;34.05;32.28;;;;;;;;;;5035110;28;20080;-54
2023/06/10 11:53:47;;;;;;;30.23;28.63;;;;;;;;;;5032845;28;20506;-55
2023/06/10 11:56:13;;;;;;;29.80;28.23;;;;;;;;;;5037578;28;20136;-64
2023/06/10 11:58:44;;;;;;;32.33;30.63;;;;;;;;;;5032995;28;20120;-63
2023/06/10 12:01:10;;;;;;;41.83;39.65;;;;;;;;;;5034768;28;20044;-63
2023/06/10 12:03:37;;;;;;;54.75;51.95;;;;;;;;;;5035568;28;20029;-62
2023/06/10 12:06:06;;;;;;;44.38;42.13;;;;;;;;;;5036977;28;20021;-61
2023/06/10 12:08:40;;;;;;;45.40;43.03;;;;;;;;;;5036231;28;20037;-53
2023/06/10 12:11:06;;;;;;;34.47;32.67;;;;;;;;;;5032198;28;20037;-52
2023/06/10 12:13:31;;;;;;;32.40;30.60;;;;;;;;;;5037618;28;20033;-63
2023/06/10 12:16:07;;;;;;;37.88;35.92;;;;;;;;;;5037083;28;20519;-53
2023/06/10 12:18:32;;;;;;;34.83;33.00;;;;;;;;;;5034970;28;20536;-63
2023/06/10 12:20:59;;;;;;;30.98;29.13;;;;;;;;;;5033921;28;20053;-63
2023/06/10 12:23:24;;;;;;;30.42;28.83;;;;;;;;;;5036165;28;20037;-63
2023/06/10 12:25:51;;;;;;;29.77;28.17;;;;;;;;;;5034490;28;20021;-55
2023/06/10 12:28:20;;;;;;;36.15;34.22;;;;;;;;;;5033961;28;20079;-63
2023/06/10 12:30:45;;;;;;;43.13;40.92;;;;;;;;;;5030873;28;20355;-64
2023/06/10 12:33:21;;;;;;;34.00;32.05;;;;;;;;;;5033756;28;20158;-63
2023/06/10 12:35:50;;;;;;;33.20;31.48;;;;;;;;;;5031800;28;20082;-63
2023/06/10 12:38:24;;;;;;;40.58;38.53;;;;;;;;;;5035398;28;20041;-56
2023/06/10 12:40:50;;;;;;;45.15;42.83;;;;;;;;;;5032723;28;20479;-55
2023/06/10 12:43:20;;;;;;;45.42;43.13;;;;;;;;;;5034413;28;20056;-64
2023/06/10 12:45:45;;;;;;;42.17;39.95;;;;;;;;;;5032982;28;20040;-53
2023/06/10 12:48:16;;;;;;;48.10;45.65;;;;;;;;;;5033870;28;20063;-53
2023/06/10 12:50:43;;;;;;;48.60;46.10;;;;;;;;;;5033496;28;20041;-53
2023/06/10 12:53:11;;;;;;;42.95;40.65;;;;;;;;;;5034775;28;20037;-50
2023/06/10 12:55:36;;;;;;;50.63;48.03;;;;;;;;;;5035752;28;20049;-65
2023/06/10 12:58:03;;;;;;;48.83;46.35;;;;;;;;;;5035364;28;20048;-64
2023/06/10 13:00:29;;;;;;;61.08;57.97;;;;;;;;;;5030805;28;20558;-63
2023/06/10 13:02:56;;;;;;;58.72;55.75;;;;;;;;;;5031906;28;20352;-64
2023/06/10 13:05:22;;;;;;;49.60;47.05;;;;;;;;;;5035617;28;20096;-63
2023/06/10 13:07:48;;;;;;;50.72;48.08;;;;;;;;;;5036194;28;20485;-53
2023/06/10 13:10:14;;;;;;;60.42;57.40;;;;;;;;;;5031667;28;20029;-51
2023/06/10 13:12:40;;;;;;;59.45;56.45;;;;;;;;;;5035487;28;20041;-52
2023/06/10 13:15:06;;;;;;;35.35;33.55;;;;;;;;;;5033688;28;20033;-54
2023/06/10 13:17:34;;;;;;;35.67;33.83;;;;;;;;;;5036580;28;20033;-62
2023/06/10 13:20:00;;;;;;;61.55;58.45;;;;;;;;;;5031414;28;20075;-63
2023/06/10 13:22:26;;;;;;;65.68;62.38;;;;;;;;;;5035056;28;20446;-62
2023/06/10 13:24:52;;;;;;;67.28;63.88;;;;;;;;;;5036544;28;20514;-63
2023/06/10 13:27:17;;;;;;;73.65;70.00;;;;;;;;;;5035435;28;20045;-55
2023/06/10 13:29:42;;;;;;;74.32;70.63;;;;;;;;;;5033657;28;20375;-63
2023/06/10 13:32:08;;;;;;;75.80;72.00;;;;;;;;;;5035638;28;20482;-64
2023/06/10 13:34:33;;;;;;;74.43;70.72;;;;;;;;;;5039359;28;20366;-64
2023/06/10 13:36:59;;;;;;;76.07;72.28;;;;;;;;;;5038516;28;20069;-63
2023/06/10 13:39:24;;;;;;;57.58;54.67;;;;;;;;;;5037786;28;20051;-54
2023/06/10 13:41:49;;;;;;;69.65;66.03;;;;;;;;;;5038016;28;20041;-53
2023/06/10 13:44:15;;;;;;;59.38;56.40;;;;;;;;;;5041182;28;20043;-55
2023/06/10 13:46:40;;;;;;;41.70;39.45;;;;;;;;;;5036701;28;20037;-53
2023/06/10 13:49:05;;;;;;;69.32;65.85;;;;;;;;;;5037881;28;20178;-52
2023/06/10 13:51:31;;;;;;;71.90;68.25;;;;;;;;;;5035677;28;20090;-53
2023/06/10 13:53:56;;;;;;;72.63;68.97;;;;;;;;;;5038724;28;20419;-53
2023/06/10 13:56:22;;;;;;;72.13;68.53;;;;;;;;;;5036367;28;20326;-54
2023/06/10 13:58:48;;;;;;;67.88;64.47;;;;;;;;;;5036610;28;20037;-54
2023/06/10 14:01:13;;;;;;;68.88;65.45;;;;;;;;;;5035687;28;20049;-51
2023/06/10 14:03:39;;;;;;;73.50;69.82;;;;;;;;;;5035594;28;20044;-54
2023/06/10 14:06:04;;;;;;;76.95;73.13;;;;;;;;;;5037160;28;20041;-53
2023/06/10 14:08:29;;;;;;;71.93;68.35;;;;;;;;;;5038663;28;20378;-52
2023/06/10 14:10:55;;;;;;;76.55;72.70;;;;;;;;;;5034905;28;20102;-54
2023/06/10 14:13:20;;;;;;;77.22;73.38;;;;;;;;;;5043530;28;20084;-50